Terminal Aerodrome Forecast
Issued by NWS

Home | Current Version | Previous Version | Text Only | Print | Product List | Glossary On
Versions: 1 2 3 4 5 6 7 8 9 10 11 12 13 14 15 16 17 18 19 20 21 22 23 24
000
FTUS44 KOHX 250525
TAFCKV
TAF
KCKV 250525Z 2506/2606 23005KT P6SM BKN070 OVC120
     FM251000 27008KT 4SM BR SCT007 OVC015
     FM251300 28010G16KT P6SM BKN020
     FM251600 27011G17KT P6SM SCT020 BKN050
     FM260200 24007KT P6SM SKC=

USA.gov is the U.S. government's official web portal to all federal, state and local government web resources and services.